Main page
METAR-TAF:

METAR-TAF

Airports :

Brønnøysund Airport. Brønnøy

Brønnøysund, Norway

latitude: 65-28N, longitude: 012-13E, elevation: 0 m

Current weather observation

The report was made 26 minutes ago, at 19:50 UTC
Wind 5 kt from the North
Temperature 17°C
Humidity 82%
Pressure 1011 hPa
Visibility 10 km or more
no clouds below 1500 m and no cumulonimbus

METAR: ENBN 141950Z 36005KT CAVOK 17/14 Q1011

Time: 22:16 (20:16 UTC)

Forecast

The report was made 3 hours and 16 minutes ago, at 17:00 UTC
Forecast valid from 14 at 18 UTC to 15 at 03 UTC
Wind 10 kt from the North
Visibility 10 km or more
Few clouds at a height of 4000 ft
Becoming
from 14 at 21 UTC to 14 at 24 UTC
Wind 8 kt from the East

TAF: ENBN 141700Z 1418/1503 35010KT 9999 FEW040 BECMG 1421/1424 09008KT

Weather observations and forecasts of more than 4000 airports (METAR and TAF reports).

The available stations are represented by yellow and red dots on the map.

Hover mouse over dot to see the name of the station.

Then click to see weather observations and forecasts.

To change the map : click on the green buttons with a black cross to zoom in, on the green button with a dash to zoom out, or on the green arrows for adjacent maps.


METAR-TAF: